Latest Weather Observations for Oenpelli Airport

IDD60801

Issued at 9:35 pm CST Tuesday 23 September 2014 (issued every 30 minutes, with the page automatically refreshed every 10 minutes)

About weather observations | Map of weather stations | Latest weather observations for NT | Other Formats
Station Details ID: 014310 Name: OENPELLI AIRPORT Lat: -12.33 Lon: 133.01 Height: 7.5 m
Data from the previous 72 hours. | See also: Recent months for locations in Northern Territory
Date/Time
CST
Temp
°C
App
Temp
°C
Dew
Point
Rel
Hum
%
Delta-T
°C
Wind Press
QNH
hPa
Press
MSL
hPa
Rain
since 9 am
mm
Dir
 
Spd
km/h
Gust
km/h
Spd
kts
Gust
kts
23/09:30pm 26.6 29.0 18.7 62 5.0 NE 4 6 2 3 1013.6 1013.5 0.0
23/09:00pm 27.5 29.8 18.5 58 5.8 NNE 4 7 2 4 1013.1 1013.0 0.0
23/08:30pm 26.6 28.9 18.5 61 5.2 NNW 4 7 2 4 1012.8 1012.7 0.0
23/08:00pm 28.4 29.7 18.5 55 6.3 N 9 13 5 7 1012.4 1012.3 0.0
23/07:30pm 28.6 29.9 19.2 56 6.1 N 11 15 6 8 1011.8 1011.7 0.0
23/07:00pm 29.1 30.6 19.7 57 6.1 N 11 17 6 9 1011.4 1011.3 0.0
23/06:30pm 29.7 31.2 20.5 57 6.1 N 13 20 7 11 1011.0 1010.9 0.0
23/06:00pm 30.1 30.5 20.6 56 6.3 N 19 28 10 15 1010.6 1010.5 0.0
23/05:30pm 31.3 30.6 20.3 52 7.3 N 24 33 13 18 1010.1 1010.0 0.0
23/05:00pm 34.4 33.4 18.8 39 10.2 NW 22 33 12 18 1009.6 1009.5 0.0
23/04:30pm 36.6 36.3 12.8 24 14.5 NW 6 11 3 6 1009.2 1009.1 0.0
23/04:00pm 36.7 36.2 12.8 24 14.5 NE 7 15 4 8 1009.5 1009.4 0.0
23/03:30pm 35.9 35.4 12.8 25 14.0 N 7 17 4 9 1009.7 1009.6 0.0
23/03:00pm 36.4 36.3 13.8 26 13.9 NE 7 15 4 8 1010.0 1009.9 0.0
23/02:30pm 36.3 36.5 14.3 27 13.6 NW 6 13 3 7 1010.4 1010.3 0.0
23/02:00pm 35.7 36.2 14.9 29 13.0 NE 6 19 3 10 1010.9 1010.8 0.0
23/01:30pm 34.8 35.7 16.1 32 11.8 NNW 6 24 3 13 1011.3 1011.2 0.0
23/01:00pm 34.3 34.7 16.2 34 11.4 N 9 17 5 9 1012.1 1012.0 0.0
23/12:30pm 33.5 34.3 16.4 36 10.8 ENE 7 13 4 7 1012.6 1012.5 0.0
23/12:00pm 33.3 34.8 17.5 39 10.1 ENE 6 15 3 8 1013.4 1013.3 0.0
23/11:30am 31.6 33.2 17.9 44 8.8 NW 6 11 3 6 1013.9 1013.8 0.0
23/11:00am 30.6 32.4 18.7 49 7.7 NNE 7 15 4 8 1014.4 1014.3 0.0
23/10:30am 30.2 32.3 18.9 50 7.3 NE 6 22 3 12 1014.9 1014.8 0.0
23/10:00am 29.4 31.7 19.4 55 6.5 N 6 13 3 7 1015.1 1015.0 0.0
23/09:30am 29.0 31.3 19.9 58 6.0 NE 7 11 4 6 1015.5 1015.4 0.0
23/09:00am 27.5 30.0 19.8 63 5.0 NNW 6 9 3 5 1015.4 1015.3 0.0
23/08:30am 26.9 30.9 20.5 68 4.2 CALM 0 4 0 2 1015.3 1015.2 0.0
23/08:00am 25.5 29.6 20.7 75 3.1 CALM 0 2 0 1 1015.3 1015.2 0.0
23/07:30am 24.2 28.3 20.7 81 2.3 CALM 0 0 0 0 1014.8 1014.7 0.0
23/07:00am 22.9 26.3 20.1 84 1.8 ENE 2 2 1 1 1014.7 1014.6 0.0
23/06:30am 21.9 25.4 19.5 86 1.5 CALM 0 4 0 2 1014.1 1014.0 0.0
23/06:00am 22.0 25.4 19.4 85 1.7 CALM 0 0 0 0 1013.8 1013.7 0.0
23/05:30am 22.4 25.6 19.8 85 1.7 E 2 4 1 2 1013.4 1013.3 0.0
23/05:00am 22.3 25.5 19.8 86 1.6 NNW 2 4 1 2 1013.4 1013.3 0.0
23/04:30am 21.8 25.3 19.5 87 1.5 CALM 0 0 0 0 1013.3 1013.2 0.0
23/04:00am 21.7 25.0 19.1 85 1.6 CALM 0 0 0 0 1013.1 1013.0 0.0
23/03:30am 22.0 25.0 18.4 80 2.3 CALM 0 2 0 1 1012.9 1012.8 0.0
23/03:00am 22.1 25.1 18.5 80 2.3 CALM 0 0 0 0 1013.1 1013.0 0.0
23/02:30am 23.0 26.4 19.4 80 2.3 CALM 0 0 0 0 1013.2 1013.1 0.0
23/02:00am 22.8 26.1 19.2 80 2.3 CALM 0 0 0 0 1013.5 1013.4 0.0
23/01:30am 22.4 25.5 19.4 83 1.9 NW 2 6 1 3 1013.9 1013.8 0.0
23/01:00am 23.2 26.3 19.6 80 2.3 NNW 2 6 1 3 1013.6 1013.5 0.0
23/12:30am 22.8 25.9 19.4 81 2.2 W 2 6 1 3 1013.5 1013.4 0.0
23/12:00am 22.6 25.6 19.2 81 2.2 S 2 4 1 2 1013.6 1013.5 0.0
 
Date/Time
CST
Temp
°C
App
Temp
°C
Dew
Point
Rel
Hum
%
Delta-T
°C
Wind Press
QNH
hPa
Press
MSL
hPa
Rain
since 9 am
mm
Dir
 
Spd
km/h
Gust
km/h
Spd
kts
Gust
kts
22/11:30pm 22.5 24.8 17.6 74 3.0 NNW 2 4 1 2 1013.8 1013.7 0.0
22/11:00pm 25.1 28.3 20.4 75 3.1 N 4 7 2 4 1013.7 1013.6 0.0
22/10:30pm 25.2 28.1 19.8 72 3.5 NE 4 6 2 3 1013.7 1013.6 0.0
22/10:00pm 25.8 28.2 20.1 71 3.7 NE 7 11 4 6 1013.2 1013.1 0.0
22/09:30pm 26.1 28.8 19.5 67 4.3 NNE 4 7 2 4 1012.9 1012.8 0.0
22/09:00pm 25.8 27.8 18.7 65 4.5 N 6 7 3 4 1012.7 1012.6 0.0
22/08:30pm 27.5 29.5 18.8 59 5.6 N 6 9 3 5 1012.2 1012.1 0.0
22/08:00pm 28.6 30.4 18.7 55 6.4 N 7 11 4 6 1011.8 1011.7 0.0
22/07:30pm 29.0 29.8 17.2 49 7.4 NNE 9 13 5 7 1011.5 1011.4 0.0
22/07:00pm 29.9 31.0 16.7 45 8.3 NNE 6 9 3 5 1011.1 1011.0 0.0
22/06:30pm 32.4 32.4 14.1 33 11.2 NNE 7 17 4 9 1010.4 1010.3 0.0
22/06:00pm 35.3 33.4 6.6 17 15.8 SE 6 9 3 5 1009.8 1009.7 0.0
22/05:30pm 35.9 34.3 6.2 16 16.3 ESE 4 7 2 4 1009.5 1009.4 0.0
22/05:00pm 36.4 34.9 8.3 18 15.9 NW 6 20 3 11 1009.3 1009.2 0.0
22/04:30pm 36.1 34.5 8.0 18 15.9 E 6 9 3 5 1009.3 1009.2 0.0
22/04:00pm 36.2 34.6 8.9 19 15.6 E 7 15 4 8 1009.3 1009.2 0.0
22/03:30pm 36.4 34.9 8.3 18 16.0 E 6 11 3 6 1009.6 1009.5 0.0
22/03:00pm 35.3 34.3 11.0 23 14.3 ENE 7 13 4 7 1009.9 1009.8 0.0
22/02:30pm 35.7 35.4 12.6 25 13.9 SSW 6 13 3 7 1010.2 1010.1 0.0
22/02:00pm 34.7 33.6 13.0 27 13.1 S 11 22 6 12 1010.7 1010.6 0.0
22/01:30pm 35.0 34.1 13.8 28 13.0 ENE 11 19 6 10 1011.3 1011.2 0.0
22/01:00pm 34.1 33.5 14.6 31 12.0 SW 11 17 6 9 1012.2 1012.1 0.0
22/12:30pm 32.5 32.3 14.6 34 11.0 E 9 19 5 10 1013.1 1013.0 0.0
22/12:00pm 32.7 33.2 16.5 37 10.2 ENE 9 17 5 9 1014.0 1013.9 0.0
22/11:30am 31.4 32.8 17.7 44 8.8 SSE 7 17 4 9 1014.9 1014.8 0.0
22/11:00am 30.9 31.8 18.3 47 8.1 ESE 11 19 6 10 1015.3 1015.2 0.0
22/10:30am 29.8 31.7 18.6 51 7.2 E 6 11 3 6 1015.8 1015.7 0.0
22/10:00am 28.7 30.6 18.5 54 6.5 ENE 6 11 3 6 1016.1 1016.0 0.0
22/09:30am 28.3 30.4 19.0 57 6.0 W 6 11 3 6 1016.3 1016.2 0.0
22/09:00am 27.4 29.6 19.2 61 5.3 NE 6 9 3 5 1016.4 1016.3 0.0
22/08:30am 26.0 29.5 20.3 71 3.7 S 2 4 1 2 1016.1 1016.0 0.0
22/08:00am 25.5 29.5 20.5 74 3.3 CALM 0 0 0 0 1015.8 1015.7 0.0
22/07:30am 24.0 28.1 20.7 82 2.2 CALM 0 0 0 0 1015.5 1015.4 0.0
22/07:00am 23.0 26.1 20.3 85 1.7 SSW 4 6 2 3 1015.2 1015.1 0.0
22/06:30am 22.9 25.7 20.4 86 1.6 SW 6 7 3 4 1014.6 1014.5 0.0
22/06:00am 22.5 25.1 20.0 86 1.6 SW 6 7 3 4 1014.3 1014.2 0.0
22/05:30am 21.9 24.5 19.3 85 1.7 SSW 4 9 2 5 1013.9 1013.8 0.0
22/05:00am 21.2 23.6 18.9 87 1.4 SSW 4 6 2 3 1013.7 1013.6 0.0
22/04:30am 20.2 22.5 17.6 85 1.6 SSW 2 4 1 2 1013.4 1013.3 0.0
22/04:00am 19.7 22.0 16.7 83 1.8 CALM 0 0 0 0 1013.1 1013.0 0.0
22/03:30am 20.9 23.6 17.7 82 2.0 CALM 0 0 0 0 1012.9 1012.8 0.0
22/03:00am 20.7 23.2 17.3 81 2.1 CALM 0 0 0 0 1013.2 1013.1 0.0
22/02:30am 21.7 24.6 18.1 80 2.2 CALM 0 0 0 0 1013.4 1013.3 0.0
22/02:00am 21.8 24.9 18.6 82 2.0 CALM 0 0 0 0 1013.5 1013.4 0.0
22/01:30am 21.7 24.5 17.9 79 2.4 CALM 0 0 0 0 1013.9 1013.8 0.0
22/01:00am 22.9 25.9 18.4 76 2.8 CALM 0 0 0 0 1014.3 1014.2 0.0
22/12:30am 23.1 26.1 18.4 75 3.0 CALM 0 0 0 0 1014.6 1014.5 0.0
22/12:00am 23.8 26.6 18.9 74 3.1 NE 2 4 1 2 1014.6 1014.5 0.0
 
Date/Time
CST
Temp
°C
App
Temp
°C
Dew
Point
Rel
Hum
%
Delta-T
°C
Wind Press
QNH
hPa
Press
MSL
hPa
Rain
since 9 am
mm
Dir
 
Spd
km/h
Gust
km/h
Spd
kts
Gust
kts
21/11:30pm 24.1 26.7 18.5 71 3.5 NE 2 6 1 3 1014.6 1014.5 0.0
21/11:00pm 24.4 26.9 18.1 68 4.0 ENE 2 4 1 2 1014.8 1014.7 0.0
21/10:30pm 25.0 26.8 18.2 66 4.3 NE 6 9 3 5 1014.8 1014.7 0.0
21/10:00pm 25.3 26.1 17.2 61 5.0 NE 9 15 5 8 1014.7 1014.6 0.0
21/09:30pm 25.7 26.0 16.0 55 5.9 NE 9 13 5 7 1014.2 1014.1 0.0
21/09:00pm 26.3 25.9 13.1 44 7.7 NNE 7 11 4 6 1013.8 1013.7 0.0
21/08:30pm 27.1 25.8 11.2 37 9.0 NNE 9 13 5 7 1013.5 1013.4 0.0
21/08:00pm 28.7 26.5 9.4 30 10.7 N 11 15 6 8 1012.8 1012.7 0.0
21/07:30pm 28.8 27.4 12.2 35 9.7 NNE 11 15 6 8 1012.4 1012.3 0.0
21/07:00pm 30.0 29.0 13.3 36 9.9 N 11 17 6 9 1011.9 1011.8 0.0
21/06:30pm 30.9 29.8 13.2 34 10.6 N 11 19 6 10 1011.3 1011.2 0.0
21/06:00pm 32.3 30.8 13.0 31 11.6 N 13 20 7 11 1010.9 1010.8 0.0
21/05:30pm 33.8 31.0 12.7 27 12.7 NNE 19 26 10 14 1010.3 1010.2 0.0
21/05:00pm 35.6 32.6 11.9 24 14.1 NE 19 26 10 14 1009.9 1009.8 0.0
21/04:30pm 36.9 33.9 7.8 17 16.4 NE 13 20 7 11 1009.8 1009.7 0.0
21/04:00pm 36.5 33.2 6.6 16 16.5 ENE 13 24 7 13 1009.8 1009.7 0.0
21/03:30pm 37.2 34.1 7.2 16 16.8 NE 13 22 7 12 1010.0 1009.9 0.0
21/03:00pm 36.5 33.3 8.4 18 16.0 E 15 30 8 16 1010.1 1010.0 0.0
21/02:30pm 36.6 33.6 7.6 17 16.3 NNE 13 24 7 13 1010.5 1010.4 0.0
21/02:00pm 35.9 32.4 7.0 17 16.0 NE 15 20 8 11 1011.0 1010.9 0.0
21/01:30pm 35.0 33.6 9.4 21 14.7 NNE 7 17 4 9 1011.6 1011.5 0.0
21/01:00pm 34.9 32.5 8.6 20 14.9 NNE 11 22 6 12 1012.4 1012.3 0.0
21/12:30pm 33.7 32.5 12.7 28 12.6 SE 11 22 6 12 1013.1 1013.0 0.0
21/12:00pm 32.4 32.4 13.6 32 11.4 SE 6 13 3 7 1013.7 1013.6 0.0
21/11:30am 31.8 32.3 14.0 34 10.8 N 4 11 2 6 1014.3 1014.2 0.0
21/11:00am 31.3 32.8 15.7 39 9.7 W 2 11 1 6 1014.9 1014.8 0.0
21/10:30am 29.3 29.8 15.1 42 8.7 SSW 6 11 3 6 1015.7 1015.6 0.0
21/10:00am 28.3 29.1 15.9 47 7.6 WSW 6 9 3 5 1015.9 1015.8 0.0
21/09:30am 27.3 28.4 17.2 54 6.3 SSW 7 11 4 6 1016.0 1015.9 0.0
21/09:00am 25.8 27.2 18.7 65 4.5 SSW 9 13 5 7 1015.9 1015.8 0.0
21/08:30am 24.3 25.4 18.9 72 3.4 SSW 11 17 6 9 1015.9 1015.8 0.0
21/08:00am 22.9 24.6 18.4 76 2.8 SW 7 15 4 8 1015.4 1015.3 0.0
21/07:30am 21.5 22.6 18.1 81 2.1 SW 9 13 5 7 1014.9 1014.8 0.0
21/07:00am 20.7 21.9 18.3 86 1.5 SW 9 13 5 7 1014.5 1014.4 0.0
21/06:30am 20.0 21.7 18.5 91 0.9 SW 7 13 4 7 1014.0 1013.9 0.0
21/06:00am 19.3 21.0 18.1 93 0.7 SW 6 9 3 5 1013.7 1013.6 0.0
21/05:30am 18.7 20.5 17.4 92 0.8 SW 4 6 2 3 1013.3 1013.2 0.0
21/05:00am 18.3 20.1 17.5 95 0.5 SW 4 7 2 4 1012.9 1012.8 0.0
21/04:30am 17.4 19.1 16.3 93 0.7 SW 2 6 1 3 1012.6 1012.5 0.0
21/04:00am 18.1 20.1 16.1 88 1.2 CALM 0 0 0 0 1012.5 1012.4 0.0
21/03:30am 18.3 20.4 16.3 88 1.2 CALM 0 0 0 0 1012.3 1012.2 0.0
21/03:00am 18.1 20.0 15.7 86 1.4 CALM 0 0 0 0 1012.3 1012.2 0.0
21/02:30am 18.2 19.8 14.9 81 1.9 CALM 0 0 0 0 1012.5 1012.4 0.0
21/02:00am 18.6 20.1 14.7 78 2.3 CALM 0 0 0 0 1012.8 1012.7 0.0
21/01:30am 18.9 20.6 15.2 79 2.2 CALM 0 0 0 0 1013.3 1013.2 0.0
21/01:00am 22.2 24.0 17.3 74 3.0 N 4 6 2 3 1013.5 1013.4 0.0
21/12:30am 22.9 24.6 17.1 70 3.6 NNE 4 6 2 3 1013.7 1013.6 0.0
21/12:00am 23.8 25.9 17.1 66 4.1 NE 2 4 1 2 1014.0 1013.9 0.0
 
Date/Time
CST
Temp
°C
App
Temp
°C
Dew
Point
Rel
Hum
%
Delta-T
°C
Wind Press
QNH
hPa
Press
MSL
hPa
Rain
since 9 am
mm
Dir
 
Spd
km/h
Gust
km/h
Spd
kts
Gust
kts
20/11:30pm 24.3 25.0 17.1 64 4.5 NNE 9 11 5 6 1014.0 1013.9 0.0
20/11:00pm 24.5 26.0 18.0 67 4.1 NNE 7 11 4 6 1014.2 1014.1 0.0
20/10:30pm 24.8 25.8 17.8 65 4.4 NE 9 13 5 7 1014.1 1014.0 0.0
20/10:00pm 25.1 25.4 17.1 61 5.0 NE 11 15 6 8 1013.8 1013.7 0.0

Other Formats:

Comma delimited format used in spreadsheet applications
http://www.bom.gov.au/fwo/IDD60801/IDD60801.94110.axf

JavaScript Object Notation format (JSON) in row-major order
http://www.bom.gov.au/fwo/IDD60801/IDD60801.94110.json